Time;durP1;ratioP1;P1;durP2;ratioP2;P2;SDS_P1;SDS_P2;PMS_P1;PMS_P2;Temp;Humidity;BMP_temperature;BMP_pressure;BME280_temperature;BME280_humidity;BME280_pressure;Samples;Min_cycle;Max_cycle;Signal;HPM_P1;HPM_P2
2023/08/16 00:02:12;;;;;;;4.43;4.03;;;28.10;56.70;;;;;;5003788;28;20610;-51
2023/08/16 00:04:38;;;;;;;6.73;4.00;;;28.00;56.80;;;;;;5003692;28;20194;-45
2023/08/16 00:07:03;;;;;;;4.60;4.20;;;28.00;56.80;;;;;;5006113;28;20255;-44
2023/08/16 00:09:29;;;;;;;4.90;4.40;;;28.00;56.90;;;;;;5006889;28;20276;-49
2023/08/16 00:11:55;;;;;;;4.60;4.20;;;27.90;57.10;;;;;;5013417;28;20222;-50
2023/08/16 00:14:20;;;;;;;4.37;3.80;;;27.90;57.30;;;;;;5012244;28;20205;-45
2023/08/16 00:16:46;;;;;;;5.50;4.20;;;27.80;57.20;;;;;;5022926;28;20186;-45
2023/08/16 00:19:12;;;;;;;4.10;3.80;;;27.80;57.20;;;;;;5006321;28;20190;-44
2023/08/16 00:21:37;;;;;;;4.20;3.90;;;27.70;57.50;;;;;;5009444;28;20277;-47
2023/08/16 00:24:06;;;;;;;3.80;3.50;;;27.70;57.70;;;;;;5006526;28;20225;-48
2023/08/16 00:26:31;;;;;;;3.80;3.50;;;27.60;57.70;;;;;;5010736;28;20210;-48
2023/08/16 00:28:57;;;;;;;8.83;4.10;;;27.60;57.60;;;;;;5005383;28;20979;-44
2023/08/16 00:31:23;;;;;;;4.20;3.90;;;27.50;57.60;;;;;;5007943;28;20283;-49
2023/08/16 00:33:49;;;;;;;4.43;3.80;;;27.50;57.80;;;;;;5009725;28;20189;-45
2023/08/16 00:36:15;;;;;;;4.53;4.13;;;27.40;57.80;;;;;;5012595;28;20194;-44
2023/08/16 00:38:43;;;;;;;7.57;3.97;;;27.40;58.00;;;;;;5009229;28;20663;-49
2023/08/16 00:41:13;;;;;;;5.23;4.37;;;27.30;58.20;;;;;;5008905;28;20863;-44
2023/08/16 00:43:39;;;;;;;4.67;4.27;;;27.20;58.30;;;;;;5006540;28;20452;-47
2023/08/16 00:46:07;;;;;;;5.03;4.37;;;27.20;58.50;;;;;;5011695;28;20461;-49
2023/08/16 00:48:36;;;;;;;5.13;4.63;;;27.10;58.70;;;;;;5012665;28;20429;-50
2023/08/16 00:51:03;;;;;;;4.37;3.97;;;27.00;59.00;;;;;;5012229;28;20476;-51
2023/08/16 00:53:30;;;;;;;8.90;4.20;;;27.00;59.30;;;;;;5005981;28;20460;-44
2023/08/16 00:55:57;;;;;;;4.30;3.90;;;26.90;59.50;;;;;;5010272;28;20457;-49
2023/08/16 00:58:24;;;;;;;4.13;3.80;;;26.90;59.80;;;;;;5005360;28;20547;-44
2023/08/16 01:00:50;;;;;;;3.90;3.60;;;26.90;59.80;;;;;;5006579;28;20448;-46
2023/08/16 01:03:15;;;;;;;4.50;4.00;;;27.00;59.80;;;;;;5014315;28;20794;-45
2023/08/16 01:05:41;;;;;;;4.80;4.30;;;27.00;59.80;;;;;;5008846;28;20198;-44
2023/08/16 01:08:07;;;;;;;10.47;3.67;;;26.90;59.70;;;;;;5008325;28;20209;-50
2023/08/16 01:10:38;;;;;;;7.90;3.83;;;26.90;59.80;;;;;;5010222;28;20310;-47
2023/08/16 01:13:12;;;;;;;4.43;4.10;;;27.00;60.00;;;;;;5004366;28;20792;-45
2023/08/16 01:15:42;;;;;;;4.80;3.80;;;27.00;60.10;;;;;;5012554;28;20451;-45
2023/08/16 01:18:08;;;;;;;4.23;3.83;;;27.00;60.10;;;;;;5006132;28;20507;-44
2023/08/16 01:20:36;;;;;;;4.03;3.73;;;27.00;59.90;;;;;;5006712;28;20456;-49
2023/08/16 01:23:06;;;;;;;4.93;4.40;;;27.10;59.80;;;;;;5007398;28;20916;-50
2023/08/16 01:25:51;;;;;;;5.83;3.87;;;27.10;59.60;;;;;;5009939;28;20480;-50
2023/08/16 01:28:18;;;;;;;4.80;4.20;;;27.20;59.50;;;;;;5002934;28;20441;-46
2023/08/16 01:30:48;;;;;;;7.20;3.90;;;27.10;59.40;;;;;;5009398;28;20481;-45
2023/08/16 01:33:13;;;;;;;4.90;4.47;;;27.20;59.40;;;;;;5003551;28;20449;-45
2023/08/16 01:35:40;;;;;;;4.57;3.80;;;27.10;59.30;;;;;;5003725;28;20448;-49
2023/08/16 01:38:08;;;;;;;4.33;3.93;;;27.10;59.30;;;;;;5008819;28;20672;-50
2023/08/16 01:40:58;;;;;;;4.77;4.33;;;27.00;59.30;;;;;;5002743;28;20450;-50
2023/08/16 01:43:25;;;;;;;9.13;4.40;;;27.00;59.60;;;;;;5004049;28;20927;-49
2023/08/16 01:45:52;;;;;;;4.40;4.07;;;27.00;59.80;;;;;;5009480;28;20463;-50
2023/08/16 01:48:19;;;;;;;4.40;3.57;;;27.00;59.80;;;;;;5009061;28;20451;-50
2023/08/16 01:50:45;;;;;;;7.30;3.90;;;27.00;59.80;;;;;;5008059;28;20480;-45
2023/08/16 01:53:11;;;;;;;5.93;3.87;;;27.00;60.00;;;;;;5010194;28;20444;-47
2023/08/16 01:55:36;;;;;;;4.30;3.97;;;27.00;59.80;;;;;;5007889;28;20276;-49
2023/08/16 01:58:02;;;;;;;3.70;3.40;;;27.10;59.60;;;;;;5003679;28;20228;-49
2023/08/16 02:00:28;;;;;;;4.30;3.73;;;27.10;59.40;;;;;;5010140;28;20268;-45
2023/08/16 02:02:53;;;;;;;3.77;3.40;;;27.10;59.40;;;;;;5005532;28;20206;-45
2023/08/16 02:05:19;;;;;;;4.53;3.87;;;27.20;59.20;;;;;;5002927;28;20237;-46
2023/08/16 02:07:44;;;;;;;4.00;3.70;;;27.10;59.10;;;;;;5002512;28;20198;-49
2023/08/16 02:10:10;;;;;;;4.50;4.10;;;27.20;59.70;;;;;;5007780;28;20241;-49
2023/08/16 02:12:35;;;;;;;3.87;3.57;;;27.20;58.90;;;;;;5003447;28;20194;-50
2023/08/16 02:15:02;;;;;;;6.80;4.37;;;27.20;58.80;;;;;;5004642;28;20654;-46
2023/08/16 02:17:27;;;;;;;3.97;3.57;;;27.30;58.60;;;;;;5002678;28;20293;-45
2023/08/16 02:19:53;;;;;;;4.10;3.77;;;27.20;58.90;;;;;;5003520;28;20865;-50
2023/08/16 02:22:18;;;;;;;4.60;4.20;;;27.20;58.50;;;;;;5007114;28;20202;-49
2023/08/16 02:24:44;;;;;;;6.20;4.30;;;27.10;58.70;;;;;;5013533;28;20202;-50
2023/08/16 02:27:10;;;;;;;4.30;3.90;;;27.10;59.00;;;;;;5013151;28;20285;-48
2023/08/16 02:29:35;;;;;;;4.67;4.27;;;27.10;59.10;;;;;;5004457;28;20190;-44
2023/08/16 02:32:01;;;;;;;4.73;4.30;;;27.10;59.40;;;;;;5004206;28;20758;-51
2023/08/16 02:34:26;;;;;;;6.50;3.53;;;27.10;59.40;;;;;;5012908;28;20201;-49
2023/08/16 02:36:52;;;;;;;4.30;3.60;;;27.10;59.40;;;;;;5008027;28;20198;-48
2023/08/16 02:39:18;;;;;;;4.57;4.20;;;27.10;59.20;;;;;;5004671;28;20194;-47
2023/08/16 02:41:43;;;;;;;6.03;4.40;;;27.10;59.10;;;;;;5014098;28;20648;-46
2023/08/16 02:44:09;;;;;;;4.53;4.10;;;27.10;59.00;;;;;;5016372;28;20293;-50
2023/08/16 02:46:34;;;;;;;3.97;3.60;;;27.10;58.90;;;;;;5001987;28;20238;-49
2023/08/16 02:49:00;;;;;;;4.43;4.13;;;27.10;59.00;;;;;;5008270;28;20566;-51
2023/08/16 02:51:25;;;;;;;5.30;4.33;;;27.10;59.10;;;;;;5013102;28;20307;-49
2023/08/16 02:53:51;;;;;;;4.33;3.90;;;27.00;59.30;;;;;;5011403;28;20198;-48
2023/08/16 02:56:16;;;;;;;4.13;3.83;;;27.00;59.40;;;;;;5008472;28;20638;-50
2023/08/16 02:58:42;;;;;;;7.47;4.20;;;26.90;59.40;;;;;;5012713;28;20732;-49
2023/08/16 03:01:07;;;;;;;4.57;3.80;;;26.90;59.40;;;;;;5007324;28;20199;-49
2023/08/16 03:03:33;;;;;;;4.60;4.20;;;26.90;59.30;;;;;;5006246;28;20189;-50
2023/08/16 03:05:59;;;;;;;6.00;4.00;;;26.90;59.30;;;;;;5013792;28;20584;-49
2023/08/16 03:08:24;;;;;;;7.27;4.20;;;26.90;59.40;;;;;;5011939;28;20676;-50
2023/08/16 03:10:50;;;;;;;5.47;4.00;;;26.90;59.30;;;;;;5008493;28;20245;-51
2023/08/16 03:13:15;;;;;;;5.20;4.73;;;26.90;59.50;;;;;;5012535;28;20194;-51
2023/08/16 03:15:41;;;;;;;4.50;4.10;;;26.80;59.90;;;;;;5012629;28;20552;-51
2023/08/16 03:18:06;;;;;;;5.33;4.20;;;26.80;60.10;;;;;;5010703;28;20222;-50
2023/08/16 03:20:32;;;;;;;6.43;4.50;;;26.80;60.80;;;;;;5009458;28;20606;-49
2023/08/16 03:22:58;;;;;;;5.20;4.50;;;26.80;60.00;;;;;;5010886;28;20202;-51
2023/08/16 03:25:24;;;;;;;6.20;4.70;;;26.80;59.90;;;;;;5008078;28;20447;-44
2023/08/16 03:27:49;;;;;;;5.10;4.60;;;26.80;59.70;;;;;;5012883;28;20256;-43
2023/08/16 03:30:15;;;;;;;5.90;4.50;;;26.80;59.60;;;;;;5009982;28;20187;-50
2023/08/16 03:32:40;;;;;;;5.10;4.17;;;26.80;59.60;;;;;;5004604;28;20202;-44
2023/08/16 03:35:06;;;;;;;3.20;3.00;;;26.80;59.50;;;;;;5010533;28;20194;-46
2023/08/16 03:37:32;;;;;;;5.00;3.77;;;26.80;59.70;;;;;;5013366;28;20193;-44
2023/08/16 03:39:57;;;;;;;11.83;5.93;;;26.80;59.60;;;;;;5003199;28;20288;-43
2023/08/16 03:42:23;;;;;;;4.80;4.40;;;26.90;59.40;;;;;;5005637;28;20565;-44
2023/08/16 03:44:49;;;;;;;4.60;4.27;;;26.90;59.30;;;;;;5013077;28;20194;-44
2023/08/16 03:47:14;;;;;;;5.73;4.50;;;26.90;59.20;;;;;;5011851;28;20240;-44
2023/08/16 03:49:40;;;;;;;6.73;4.27;;;26.90;59.50;;;;;;5015694;28;20198;-45
2023/08/16 03:52:06;;;;;;;4.43;3.97;;;26.90;59.40;;;;;;5013006;28;20222;-44
2023/08/16 03:54:31;;;;;;;4.10;3.70;;;26.90;59.20;;;;;;5013760;28;20531;-45
2023/08/16 03:56:57;;;;;;;6.73;4.40;;;26.90;59.20;;;;;;5012278;28;20455;-44
2023/08/16 03:59:23;;;;;;;4.30;3.83;;;26.90;59.10;;;;;;5009841;28;20756;-45
2023/08/16 04:01:48;;;;;;;5.20;4.70;;;26.90;59.20;;;;;;5009535;28;20191;-45
2023/08/16 04:04:14;;;;;;;4.67;4.27;;;26.90;59.10;;;;;;5009774;28;20217;-48
2023/08/16 04:06:39;;;;;;;4.73;3.77;;;27.00;59.10;;;;;;5012191;28;20202;-44
2023/08/16 04:09:06;;;;;;;4.33;3.93;;;27.00;59.10;;;;;;5010838;28;20190;-44
2023/08/16 04:11:32;;;;;;;7.00;4.30;;;27.00;59.10;;;;;;5007392;28;20681;-46
2023/08/16 04:13:58;;;;;;;4.27;3.87;;;27.00;59.00;;;;;;5010803;28;20574;-44
2023/08/16 04:16:23;;;;;;;5.80;4.40;;;27.00;59.10;;;;;;5015105;28;20190;-44
2023/08/16 04:18:53;;;;;;;4.53;4.23;;;27.00;59.20;;;;;;5007965;28;20256;-46
2023/08/16 04:21:19;;;;;;;4.87;4.27;;;27.10;59.10;;;;;;5012055;28;20654;-45
2023/08/16 04:23:44;;;;;;;4.43;4.13;;;27.10;59.10;;;;;;5008317;28;20424;-44
2023/08/16 04:26:10;;;;;;;4.80;4.20;;;27.10;59.00;;;;;;5007886;28;20437;-44
2023/08/16 04:28:35;;;;;;;6.80;4.37;;;27.10;59.10;;;;;;5010764;28;20284;-44
2023/08/16 04:31:01;;;;;;;5.57;5.07;;;27.10;59.20;;;;;;5010349;28;20263;-46
2023/08/16 04:33:26;;;;;;;5.77;5.27;;;27.10;59.10;;;;;;5006885;28;20262;-45
2023/08/16 04:35:53;;;;;;;5.73;5.20;;;27.10;59.20;;;;;;5010249;28;20198;-45
2023/08/16 04:38:19;;;;;;;5.53;4.60;;;27.10;59.30;;;;;;5007854;28;20676;-45
2023/08/16 04:40:49;;;;;;;9.17;5.33;;;27.10;59.30;;;;;;5006495;28;20441;-44
2023/08/16 04:43:14;;;;;;;5.20;4.73;;;27.10;59.40;;;;;;5007890;28;20201;-44
2023/08/16 04:45:40;;;;;;;6.80;4.20;;;27.10;59.30;;;;;;5011640;28;20433;-44
2023/08/16 04:48:05;;;;;;;6.00;5.50;;;27.10;59.30;;;;;;5010323;28;20258;-45
2023/08/16 04:50:31;;;;;;;6.07;5.60;;;27.10;59.30;;;;;;5006877;28;20209;-46
2023/08/16 04:52:57;;;;;;;6.10;5.50;;;27.10;59.20;;;;;;5005879;28;20198;-45
2023/08/16 04:55:22;;;;;;;6.53;5.90;;;27.10;59.20;;;;;;5011440;28;20201;-44
2023/08/16 04:57:48;;;;;;;6.90;6.30;;;27.00;59.40;;;;;;5009585;28;20707;-44
2023/08/16 05:00:14;;;;;;;4.80;4.30;;;26.90;59.60;;;;;;5011249;28;20724;-45
2023/08/16 05:02:39;;;;;;;5.63;5.00;;;26.80;60.10;;;;;;5006306;28;20193;-46
2023/08/16 05:05:05;;;;;;;7.20;6.50;;;26.80;60.50;;;;;;5011333;28;20563;-47
2023/08/16 05:07:31;;;;;;;10.80;5.87;;;26.70;60.70;;;;;;5012097;28;20205;-44
2023/08/16 05:09:56;;;;;;;5.77;5.27;;;26.80;61.00;;;;;;5005373;28;20539;-45
2023/08/16 05:12:22;;;;;;;6.77;6.00;;;26.70;60.90;;;;;;5007878;28;20233;-44
2023/08/16 05:14:47;;;;;;;6.53;5.93;;;26.50;61.30;;;;;;5010420;28;20656;-45
2023/08/16 05:17:13;;;;;;;6.60;5.40;;;26.50;62.30;;;;;;5008408;28;20649;-44
2023/08/16 05:19:38;;;;;;;6.77;6.17;;;26.40;62.40;;;;;;5009284;28;20194;-44
2023/08/16 05:22:04;;;;;;;7.77;6.23;;;26.30;62.70;;;;;;5004089;28;20193;-48
2023/08/16 05:24:30;;;;;;;6.50;5.67;;;26.20;63.20;;;;;;5005819;28;20651;-48
2023/08/16 05:26:55;;;;;;;6.40;5.50;;;26.40;62.70;;;;;;5013155;28;20221;-46
2023/08/16 05:29:21;;;;;;;6.47;5.97;;;26.40;62.40;;;;;;5010612;28;20197;-44
2023/08/16 05:31:46;;;;;;;7.00;6.30;;;26.40;62.90;;;;;;5010601;28;20230;-43
2023/08/16 05:34:12;;;;;;;11.40;5.97;;;25.90;65.20;;;;;;5006851;28;20724;-44
2023/08/16 05:36:47;;;;;;;8.90;6.73;;;25.60;66.40;;;;;;5013210;28;20190;-45
2023/08/16 05:39:14;;;;;;;8.20;6.57;;;25.20;69.10;;;;;;5009237;28;20548;-44
2023/08/16 05:41:41;;;;;;;6.90;6.30;;;24.80;71.10;;;;;;5009980;28;20531;-47
2023/08/16 05:44:08;;;;;;;7.00;6.30;;;24.70;72.40;;;;;;5008647;28;20476;-45
2023/08/16 05:46:33;;;;;;;6.47;5.83;;;24.90;71.60;;;;;;5012914;28;20464;-44
2023/08/16 05:49:01;;;;;;;7.33;6.73;;;25.00;71.00;;;;;;5016338;28;20244;-46
2023/08/16 05:51:27;;;;;;;6.77;6.03;;;24.90;72.30;;;;;;5013301;28;20320;-46
2023/08/16 05:53:53;;;;;;;7.83;6.80;;;24.60;73.80;;;;;;5012865;28;20865;-46
2023/08/16 05:56:18;;;;;;;7.77;7.07;;;24.80;73.60;;;;;;5015165;28;20193;-45
2023/08/16 05:58:44;;;;;;;6.70;6.10;;;24.80;73.80;;;;;;5006165;28;20610;-48
2023/08/16 06:01:10;;;;;;;14.37;6.83;;;24.90;73.30;;;;;;5014627;28;20190;-45
2023/08/16 06:03:36;;;;;;;8.97;7.13;;;25.10;71.90;;;;;;5012061;28;20485;-48
2023/08/16 06:06:01;;;;;;;6.10;5.50;;;25.00;72.30;;;;;;5010780;28;20187;-44
2023/08/16 06:08:27;;;;;;;6.23;5.73;;;25.30;71.40;;;;;;5013881;28;20212;-47
2023/08/16 06:10:53;;;;;;;6.00;5.60;;;25.60;69.60;;;;;;5012332;28;20229;-44
2023/08/16 06:13:18;;;;;;;6.60;6.00;;;25.70;69.20;;;;;;5013313;28;20197;-44
2023/08/16 06:15:44;;;;;;;6.93;6.17;;;25.80;69.20;;;;;;5015209;28;20251;-45
2023/08/16 06:18:09;;;;;;;6.30;5.67;;;25.80;68.70;;;;;;5010567;28;20195;-44
2023/08/16 06:20:35;;;;;;;6.00;5.47;;;25.50;70.70;;;;;;5004192;28;20198;-44
2023/08/16 06:23:01;;;;;;;6.50;6.00;;;25.70;70.00;;;;;;5007955;28;20205;-44
2023/08/16 06:25:27;;;;;;;5.77;5.30;;;26.00;69.10;;;;;;5011869;28;20190;-45
2023/08/16 06:27:53;;;;;;;5.53;5.03;;;26.30;68.20;;;;;;5006344;28;20436;-50
2023/08/16 06:30:18;;;;;;;6.27;5.67;;;26.40;67.70;;;;;;5012142;28;20201;-48
2023/08/16 06:32:44;;;;;;;5.73;5.33;;;26.30;68.00;;;;;;5011659;28;20324;-47
2023/08/16 06:35:09;;;;;;;5.70;5.10;;;26.00;69.50;;;;;;5008088;28;20194;-49
2023/08/16 06:37:38;;;;;;;6.13;5.63;;;26.30;68.90;;;;;;5014495;28;20216;-47
2023/08/16 06:40:04;;;;;;;5.50;5.10;;;26.50;67.50;;;;;;5014507;28;20226;-48
2023/08/16 06:42:31;;;;;;;5.83;5.30;;;26.60;66.70;;;;;;5010217;28;20506;-49
2023/08/16 06:44:56;;;;;;;6.40;5.57;;;26.70;66.20;;;;;;5009577;28;20464;-49
2023/08/16 06:47:22;;;;;;;5.30;4.90;;;26.70;66.00;;;;;;5013268;28;20473;-46
2023/08/16 06:49:47;;;;;;;4.73;4.43;;;27.00;65.70;;;;;;5014901;28;20194;-46
2023/08/16 06:52:13;;;;;;;5.00;4.70;;;27.20;64.40;;;;;;5012398;28;20233;-46
2023/08/16 06:54:40;;;;;;;9.53;5.20;;;27.40;63.00;;;;;;5012010;28;20194;-46
2023/08/16 06:57:06;;;;;;;7.83;5.83;;;27.40;62.30;;;;;;5011651;28;20194;-46
2023/08/16 06:59:31;;;;;;;5.73;4.90;;;27.50;61.80;;;;;;5012745;28;20478;-51
2023/08/16 07:01:57;;;;;;;10.57;4.70;;;27.60;61.90;;;;;;5012880;28;20226;-47
2023/08/16 07:04:23;;;;;;;5.53;4.67;;;27.50;62.00;;;;;;5014316;28;20252;-46
2023/08/16 07:06:48;;;;;;;6.13;5.03;;;27.60;62.10;;;;;;5013771;28;20201;-46
2023/08/16 07:09:14;;;;;;;5.93;4.77;;;27.70;61.60;;;;;;5011686;28;20190;-46
2023/08/16 07:11:39;;;;;;;6.10;5.40;;;27.70;61.70;;;;;;5011922;28;20266;-47
2023/08/16 07:14:05;;;;;;;6.10;5.60;;;27.70;61.60;;;;;;5012477;28;20205;-47
2023/08/16 07:16:31;;;;;;;5.60;5.10;;;27.60;61.50;;;;;;5007420;28;20194;-54
2023/08/16 07:18:57;;;;;;;5.57;5.07;;;27.60;61.90;;;;;;5009199;28;20478;-46
2023/08/16 07:21:22;;;;;;;7.47;5.10;;;27.90;61.50;;;;;;5008095;28;20294;-48
2023/08/16 07:23:49;;;;;;;6.23;5.63;;;28.00;61.40;;;;;;5005597;28;20437;-48
2023/08/16 07:26:14;;;;;;;5.33;4.80;;;28.20;60.30;;;;;;5009904;28;20284;-47
2023/08/16 07:28:40;;;;;;;5.77;5.27;;;28.40;60.40;;;;;;5010718;28;20524;-46
2023/08/16 07:31:05;;;;;;;5.00;4.60;;;28.50;60.40;;;;;;5008397;28;20245;-49
2023/08/16 07:33:31;;;;;;;6.73;5.33;;;28.70;59.30;;;;;;5005492;28;20206;-47
2023/08/16 07:36:03;;;;;;;6.00;5.23;;;28.70;58.70;;;;;;5003648;28;20980;-47
2023/08/16 07:38:32;;;;;;;4.83;4.53;;;28.80;58.70;;;;;;5011820;28;20248;-47
2023/08/16 07:40:58;;;;;;;6.23;5.27;;;28.80;58.20;;;;;;5006090;28;20539;-48
2023/08/16 07:43:24;;;;;;;6.63;6.03;;;28.90;58.50;;;;;;5012290;28;20543;-49
2023/08/16 07:45:53;;;;;;;6.70;6.13;;;29.10;58.50;;;;;;5009531;28;20209;-47
2023/08/16 07:48:20;;;;;;;5.73;5.20;;;29.20;57.70;;;;;;5006471;28;20492;-49
2023/08/16 07:50:45;;;;;;;7.50;5.90;;;29.50;57.40;;;;;;5001254;28;20484;-47
2023/08/16 07:53:11;;;;;;;6.30;5.70;;;29.70;56.90;;;;;;5013316;28;20796;-48
2023/08/16 07:55:37;;;;;;;5.80;5.20;;;29.80;56.50;;;;;;5011628;28;20762;-49
2023/08/16 07:58:03;;;;;;;7.37;5.03;;;29.90;56.00;;;;;;5013109;28;20190;-47
2023/08/16 08:00:29;;;;;;;12.53;6.00;;;29.70;56.40;;;;;;5013643;28;20194;-48
2023/08/16 08:02:55;;;;;;;6.00;5.40;;;29.80;56.80;;;;;;5012774;28;20205;-47
2023/08/16 08:05:21;;;;;;;6.40;5.67;;;29.90;56.50;;;;;;5011782;28;20437;-47
2023/08/16 08:07:47;;;;;;;5.83;5.23;;;30.20;57.00;;;;;;5010292;28;20198;-48
2023/08/16 08:10:14;;;;;;;6.23;5.67;;;30.50;56.20;;;;;;4999913;28;20433;-47
2023/08/16 08:12:39;;;;;;;6.00;5.40;;;30.70;55.50;;;;;;5009562;28;20566;-47
2023/08/16 08:15:05;;;;;;;5.93;5.40;;;30.70;54.40;;;;;;5011647;28;20437;-50
2023/08/16 08:17:31;;;;;;;6.93;5.60;;;30.70;54.90;;;;;;5010094;28;20197;-47
2023/08/16 08:19:57;;;;;;;9.00;6.47;;;30.80;54.60;;;;;;5013142;28;20483;-48
2023/08/16 08:22:22;;;;;;;6.10;5.50;;;30.90;53.90;;;;;;5011290;28;20280;-47
2023/08/16 08:24:48;;;;;;;5.40;4.90;;;31.00;53.90;;;;;;5013186;28;20205;-49
2023/08/16 08:27:13;;;;;;;6.60;5.70;;;30.80;54.00;;;;;;5010644;28;20205;-47
2023/08/16 08:29:40;;;;;;;6.10;5.60;;;31.10;54.30;;;;;;5012747;28;20197;-48
2023/08/16 08:32:06;;;;;;;6.83;6.20;;;31.30;53.30;;;;;;5011453;28;20229;-47
2023/08/16 08:34:32;;;;;;;6.70;5.93;;;31.30;52.70;;;;;;5011247;28;20430;-47
2023/08/16 08:36:59;;;;;;;6.50;5.90;;;31.40;53.20;;;;;;5009860;28;20201;-49
2023/08/16 08:39:26;;;;;;;6.30;5.70;;;31.40;53.30;;;;;;5011838;28;20452;-47
2023/08/16 08:41:53;;;;;;;6.27;5.57;;;31.70;52.70;;;;;;5011594;28;20524;-47
2023/08/16 08:44:21;;;;;;;6.50;5.93;;;32.00;52.10;;;;;;5001338;28;20474;-48
2023/08/16 08:46:48;;;;;;;5.30;4.90;;;32.20;51.60;;;;;;5011007;28;20492;-47
2023/08/16 08:49:19;;;;;;;5.80;5.30;;;32.40;51.40;;;;;;5007678;28;20536;-48
2023/08/16 08:51:44;;;;;;;6.70;6.10;;;32.60;50.70;;;;;;5011939;28;20508;-48
2023/08/16 08:54:11;;;;;;;6.07;5.57;;;32.50;50.50;;;;;;5011931;28;20459;-48
2023/08/16 08:56:36;;;;;;;6.63;5.53;;;32.40;50.60;;;;;;5010122;28;20204;-49
2023/08/16 08:59:02;;;;;;;11.23;6.53;;;32.00;51.60;;;;;;5012181;28;20512;-49
2023/08/16 09:01:30;;;;;;;5.80;5.40;;;32.10;52.00;;;;;;5009869;28;20256;-47
2023/08/16 09:04:02;;;;;;;7.10;5.70;;;32.30;51.20;;;;;;5008079;28;20507;-50
2023/08/16 09:06:28;;;;;;;5.57;5.17;;;32.20;50.90;;;;;;5005096;28;20532;-48
2023/08/16 09:08:56;;;;;;;7.67;5.53;;;32.30;51.00;;;;;;5004816;28;20477;-46
2023/08/16 09:11:22;;;;;;;7.17;6.10;;;32.60;50.90;;;;;;5009595;28;20232;-51
2023/08/16 09:13:48;;;;;;;6.70;6.10;;;32.60;50.60;;;;;;4999760;28;20434;-49
2023/08/16 09:16:14;;;;;;;5.93;5.50;;;32.60;50.80;;;;;;5018820;28;20865;-49
2023/08/16 09:18:49;;;;;;;6.40;5.80;;;32.80;50.80;;;;;;5009596;28;20197;-50
2023/08/16 09:21:16;;;;;;;7.30;5.73;;;33.10;49.80;;;;;;5000710;28;20436;-51
2023/08/16 09:23:42;;;;;;;6.57;5.77;;;33.10;49.00;;;;;;5004397;28;20460;-51
2023/08/16 09:26:17;;;;;;;7.67;6.23;;;33.20;48.80;;;;;;5009599;28;20448;-49
2023/08/16 09:28:43;;;;;;;5.83;5.23;;;33.30;48.80;;;;;;4998257;28;20491;-49
2023/08/16 09:31:08;;;;;;;5.40;4.90;;;33.30;48.50;;;;;;5010345;28;20484;-52
2023/08/16 09:33:35;;;;;;;6.43;5.57;;;33.60;49.00;;;;;;5004002;28;20650;-47
2023/08/16 09:36:03;;;;;;;5.93;5.33;;;33.70;48.30;;;;;;5006212;28;20256;-48
2023/08/16 09:38:28;;;;;;;6.77;6.10;;;33.90;47.50;;;;;;5010276;28;20436;-48
2023/08/16 09:40:54;;;;;;;6.13;5.73;;;34.30;47.80;;;;;;5007771;28;20445;-51
2023/08/16 09:43:20;;;;;;;6.07;5.40;;;34.50;47.30;;;;;;5007092;28;20549;-47
2023/08/16 09:45:53;;;;;;;9.13;6.20;;;34.60;46.50;;;;;;5003856;28;20198;-51
2023/08/16 09:48:21;;;;;;;9.17;5.23;;;34.70;46.30;;;;;;5007727;28;20461;-46
2023/08/16 09:50:47;;;;;;;6.17;5.63;;;34.60;45.80;;;;;;5002760;28;20453;-50
2023/08/16 09:53:13;;;;;;;6.87;6.17;;;34.30;47.20;;;;;;5005363;28;20459;-51
2023/08/16 09:55:42;;;;;;;6.67;6.10;;;34.50;47.20;;;;;;5012252;28;20186;-51
2023/08/16 09:58:08;;;;;;;6.80;6.30;;;34.80;47.40;;;;;;5007324;28;20479;-50
2023/08/16 10:00:34;;;;;;;6.73;6.00;;;35.10;46.00;;;;;;4999563;28;20492;-52
2023/08/16 10:03:01;;;;;;;6.10;5.67;;;35.40;46.10;;;;;;5006685;28;20237;-51
2023/08/16 10:05:27;;;;;;;10.20;7.77;;;34.80;45.90;;;;;;5002997;28;20905;-50
2023/08/16 10:07:56;;;;;;;8.40;6.77;;;35.00;45.70;;;;;;5002733;28;20471;-47
2023/08/16 10:10:22;;;;;;;6.67;6.10;;;34.90;44.70;;;;;;4998355;28;20445;-47
2023/08/16 10:12:48;;;;;;;6.23;5.67;;;34.80;45.40;;;;;;5008393;28;20495;-48
2023/08/16 10:15:14;;;;;;;10.80;9.73;;;34.70;45.90;;;;;;5009664;28;20197;-48
2023/08/16 10:17:41;;;;;;;6.20;5.80;;;35.10;46.10;;;;;;5012172;28;20452;-46
2023/08/16 10:20:25;;;;;;;6.90;6.40;;;35.20;45.20;;;;;;5011284;28;20815;-48
2023/08/16 10:23:02;;;;;;;6.57;6.00;;;35.20;44.70;;;;;;5014799;28;20437;-48
2023/08/16 10:25:36;;;;;;;6.53;5.93;;;34.80;45.60;;;;;;5011445;28;20811;-47
2023/08/16 10:28:03;;;;;;;6.23;5.73;;;35.10;45.20;;;;;;5012255;28;20443;-50
2023/08/16 10:30:31;;;;;;;6.40;5.80;;;34.90;45.40;;;;;;5013709;28;20468;-52
2023/08/16 10:33:07;;;;;;;6.80;6.20;;;35.50;45.20;;;;;;5012204;28;20563;-49
2023/08/16 10:35:34;;;;;;;7.23;5.40;;;35.90;43.00;;;;;;5011328;28;20454;-51
2023/08/16 10:38:00;;;;;;;6.40;5.87;;;36.20;43.30;;;;;;5013826;28;20441;-52
2023/08/16 10:40:26;;;;;;;6.30;5.70;;;36.10;42.60;;;;;;5012422;28;20506;-47
2023/08/16 10:42:59;;;;;;;7.80;5.40;;;36.40;43.40;;;;;;5012029;28;20202;-51
2023/08/16 10:45:30;;;;;;;6.53;6.03;;;36.50;42.60;;;;;;5009425;28;20248;-51
2023/08/16 10:47:55;;;;;;;6.60;6.10;;;36.60;42.10;;;;;;5011170;28;20527;-52
2023/08/16 10:50:34;;;;;;;6.00;5.40;;;36.70;42.00;;;;;;5007995;28;20444;-52
2023/08/16 10:53:00;;;;;;;6.80;5.30;;;36.70;41.80;;;;;;5009805;28;20216;-50
2023/08/16 10:55:26;;;;;;;4.97;4.47;;;36.80;41.10;;;;;;5002698;28;20444;-48
2023/08/16 10:57:53;;;;;;;9.17;6.20;;;36.50;41.50;;;;;;5010571;28;20449;-51
2023/08/16 11:00:19;;;;;;;7.70;6.20;;;35.90;42.80;;;;;;5006413;28;20190;-48
2023/08/16 11:02:48;;;;;;;5.47;4.90;;;35.60;43.20;;;;;;5013278;28;20440;-47
2023/08/16 11:05:20;;;;;;;5.77;5.27;;;35.60;43.50;;;;;;5014386;28;20213;-50
2023/08/16 11:07:46;;;;;;;6.37;5.87;;;35.90;42.80;;;;;;5012995;28;20424;-46
2023/08/16 11:10:13;;;;;;;9.23;4.93;;;36.20;43.10;;;;;;5004239;28;21089;-50
2023/08/16 11:12:39;;;;;;;6.40;5.33;;;36.70;41.20;;;;;;5011668;28;20488;-51
2023/08/16 11:15:05;;;;;;;5.80;5.30;;;37.10;40.60;;;;;;5014482;28;20962;-51
2023/08/16 11:17:32;;;;;;;5.93;5.33;;;37.60;39.80;;;;;;5014318;28;20440;-52
2023/08/16 11:20:00;;;;;;;5.30;4.80;;;37.80;39.80;;;;;;5011755;28;20452;-52
2023/08/16 11:22:26;;;;;;;6.20;4.97;;;37.80;38.60;;;;;;5011631;28;20479;-52
2023/08/16 11:24:52;;;;;;;7.10;5.73;;;37.70;40.00;;;;;;5013937;28;20909;-50
2023/08/16 11:27:23;;;;;;;6.03;5.00;;;38.00;40.00;;;;;;5012878;28;20201;-47
2023/08/16 11:29:59;;;;;;;5.43;4.90;;;38.30;39.30;;;;;;5011751;28;20185;-51
2023/08/16 11:32:36;;;;;;;6.17;5.67;;;38.60;39.60;;;;;;5011913;28;20519;-51
2023/08/16 11:35:09;;;;;;;5.80;5.30;;;38.70;39.40;;;;;;5010153;28;20479;-48
2023/08/16 11:37:35;;;;;;;6.00;4.60;;;38.90;39.00;;;;;;5008580;28;20448;-52
2023/08/16 11:40:04;;;;;;;5.77;5.27;;;39.10;37.10;;;;;;5011718;28;20444;-52
2023/08/16 11:42:30;;;;;;;5.67;5.07;;;39.10;35.70;;;;;;5003173;28;20463;-52
2023/08/16 11:44:56;;;;;;;5.83;5.33;;;38.30;36.80;;;;;;5012124;28;20484;-51
2023/08/16 11:47:23;;;;;;;5.57;4.70;;;38.50;37.30;;;;;;5010575;28;20495;-50
2023/08/16 11:49:49;;;;;;;5.27;4.77;;;38.90;36.70;;;;;;5011019;28;20251;-50
2023/08/16 11:52:24;;;;;;;4.87;4.50;;;39.20;35.50;;;;;;5009960;28;20483;-49
2023/08/16 11:55:07;;;;;;;5.47;5.00;;;39.40;35.20;;;;;;5006474;28;20540;-52
2023/08/16 11:57:46;;;;;;;5.30;4.80;;;39.50;36.00;;;;;;5007451;28;20514;-52
2023/08/16 12:00:15;;;;;;;4.53;4.13;;;39.70;35.80;;;;;;5004771;28;20939;-51
2023/08/16 12:02:43;;;;;;;4.80;4.23;;;39.70;34.20;;;;;;5009363;28;20441;-51
2023/08/16 12:05:10;;;;;;;4.87;4.47;;;39.80;34.00;;;;;;5012333;28;20444;-52
2023/08/16 12:07:48;;;;;;;5.30;4.43;;;40.00;34.10;;;;;;5009196;28;20453;-50
2023/08/16 12:10:26;;;;;;;4.77;4.33;;;39.90;32.60;;;;;;5008750;28;20480;-51
2023/08/16 12:12:53;;;;;;;4.77;4.27;;;39.90;33.00;;;;;;5007215;28;20574;-52
2023/08/16 12:15:23;;;;;;;5.30;3.80;;;39.90;33.00;;;;;;5007664;28;20527;-53
2023/08/16 12:17:49;;;;;;;4.30;4.00;;;40.10;33.20;;;;;;5005870;28;20447;-51
2023/08/16 12:20:15;;;;;;;4.50;4.10;;;40.30;32.30;;;;;;5010595;28;20448;-51
2023/08/16 12:22:41;;;;;;;4.40;4.00;;;40.40;31.90;;;;;;5005021;28;20436;-53
2023/08/16 12:25:07;;;;;;;5.13;4.53;;;40.30;31.70;;;;;;5011855;28;20193;-52
2023/08/16 12:27:33;;;;;;;4.80;4.20;;;40.40;32.10;;;;;;5011878;28;20204;-51
2023/08/16 12:29:58;;;;;;;5.20;4.80;;;40.30;32.00;;;;;;5009677;28;20444;-52
2023/08/16 12:32:24;;;;;;;4.40;4.00;;;40.20;31.40;;;;;;5014168;28;20256;-52
2023/08/16 12:34:50;;;;;;;5.37;4.93;;;40.10;32.30;;;;;;5010879;28;20186;-52
2023/08/16 12:37:15;;;;;;;4.30;4.00;;;40.30;32.30;;;;;;5008203;28;20193;-52
2023/08/16 12:39:41;;;;;;;4.73;4.23;;;40.50;32.30;;;;;;5008903;28;20193;-50
2023/08/16 12:42:07;;;;;;;4.30;3.90;;;40.80;31.40;;;;;;5006220;28;20197;-49
2023/08/16 12:44:32;;;;;;;6.37;4.70;;;40.50;31.80;;;;;;5005606;28;20193;-51